Time;durP1;ratioP1;P1;durP2;ratioP2;P2;SDS_P1;SDS_P2;PMS_P1;PMS_P2;Temp;Humidity;BMP_temperature;BMP_pressure;BME280_temperature;BME280_humidity;BME280_pressure;Samples;Min_cycle;Max_cycle;Signal;HPM_P1;HPM_P2
2022/01/16 00:01:17;;;;;;;;;;;;;;;1.02;100.00;101724.28;5013969;28;916;-73
2022/01/16 00:06:27;;;;;;;;;;;;;;;0.97;100.00;101721.75;5031812;28;1030;-72
2022/01/16 00:08:55;;;;;;;;;;;;;;;0.98;100.00;101742.22;5032155;28;1312;-70
2022/01/16 00:11:23;;;;;;;;;;;;;;;0.96;100.00;101739.59;5014273;28;804;-71
2022/01/16 00:13:49;;;;;;;;;;;;;;;0.91;100.00;101738.81;5032365;28;1046;-73
2022/01/16 00:16:16;;;;;;;;;;;;;;;0.88;100.00;101738.00;5031741;28;1928;-71
2022/01/16 00:18:49;;;;;;;;;;;;;;;0.88;100.00;101735.34;5013889;28;1317;-72
2022/01/16 00:21:16;;;;;;;;;;;;;;;0.83;100.00;101738.16;5031733;28;871;-71
2022/01/16 00:23:42;;;;;;;;;;;;;;;0.75;100.00;101746.34;5031813;28;1033;-72
2022/01/16 00:26:10;;;;;;;;;;;;;;;0.77;100.00;101739.16;5031343;28;1057;-72
2022/01/16 00:28:36;;;;;;;;;;;;;;;0.76;100.00;101708.00;5030698;28;1308;-71
2022/01/16 00:31:02;;;;;;;;;;;;;;;0.77;100.00;101711.56;5032183;28;911;-72
2022/01/16 00:33:29;;;;;;;;;;;;;;;0.74;100.00;101727.66;5016942;28;1157;-72
2022/01/16 00:35:55;;;;;;;;;;;;;;;0.75;100.00;101737.44;5030774;28;1978;-72
2022/01/16 00:38:21;;;;;;;;;;;;;;;0.77;100.00;101748.97;5031187;28;1377;-72
2022/01/16 00:40:47;;;;;;;;;;;;;;;0.77;100.00;101760.53;5031531;28;1031;-71
2022/01/16 00:43:15;;;;;;;;;;;;;;;0.80;100.00;101757.81;5031427;28;990;-71
2022/01/16 00:45:41;;;;;;;;;;;;;;;0.80;100.00;101727.50;5031268;28;1046;-71
2022/01/16 00:48:08;;;;;;;;;;;;;;;0.78;100.00;101711.50;5013044;28;1332;-72
2022/01/16 00:50:35;;;;;;;;;;;;;;;0.81;100.00;101710.56;5031261;28;943;-72
2022/01/16 00:53:01;;;;;;;;;;;;;;;0.80;100.00;101685.63;5030951;28;849;-72
2022/01/16 00:55:28;;;;;;;;;;;;;;;0.80;100.00;101685.63;5013495;28;1902;-72
2022/01/16 00:57:54;;;;;;;;;;;;;;;0.80;100.00;101687.41;5030795;28;1313;-71
2022/01/16 01:00:22;;;;;;;;;;;;;;;0.77;100.00;101679.47;5031134;28;958;-70
2022/01/16 01:02:48;;;;;;;;;;;;;;;0.73;100.00;101678.66;5030980;28;1002;-72
2022/01/16 01:05:14;;;;;;;;;;;;;;;0.69;100.00;101681.47;5031122;28;966;-71
2022/01/16 01:07:41;;;;;;;;;;;;;;;0.65;100.00;101686.00;5030743;28;1301;-72
2022/01/16 01:10:08;;;;;;;;;;;;;;;0.65;100.00;101688.66;5013173;28;784;-72
2022/01/16 01:12:51;;;;;;;;;;;;;;;0.67;100.00;101700.22;5030559;28;867;-71
2022/01/16 01:15:18;;;;;;;;;;;;;;;0.70;100.00;101694.78;5013284;28;1915;-72
2022/01/16 01:17:47;;;;;;;;;;;;;;;0.72;100.00;101695.63;5012521;28;1450;-73
2022/01/16 01:20:16;;;;;;;;;;;;;;;0.73;100.00;101669.78;5030889;28;907;-72
2022/01/16 01:22:42;;;;;;;;;;;;;;;0.71;100.00;101672.50;5030872;28;859;-72
2022/01/16 01:25:12;;;;;;;;;;;;;;;0.70;100.00;101668.06;5012915;28;963;-72
2022/01/16 01:27:41;;;;;;;;;;;;;;;0.68;100.00;101664.53;5030258;28;1305;-70
2022/01/16 01:30:09;;;;;;;;;;;;;;;0.69;100.00;101666.28;5030377;28;1014;-72
2022/01/16 01:32:37;;;;;;;;;;;;;;;0.66;100.00;101669.91;5030316;28;1061;-72
2022/01/16 01:35:05;;;;;;;;;;;;;;;0.65;100.00;101657.47;5030751;28;1914;-72
2022/01/16 01:37:31;;;;;;;;;;;;;;;0.63;100.00;101671.81;5030100;28;1384;-70
2022/01/16 01:39:57;;;;;;;;;;;;;;;0.62;100.00;101665.56;5029979;28;796;-70
2022/01/16 01:42:30;;;;;;;;;;;;;;;0.68;100.00;101653.84;5030388;28;997;-71
2022/01/16 01:53:23;;;;;;;;;;;;;;;0.70;100.00;101529.06;5004185;28;1102;-73
2022/01/16 01:55:50;;;;;;;;;;;;;;;0.67;100.00;101531.84;5030177;28;1907;-73
2022/01/16 01:58:18;;;;;;;;;;;;;;;0.64;100.00;101529.22;5030253;28;1333;-70
2022/01/16 02:00:45;;;;;;;;;;;;;;;0.65;100.00;101557.72;5030536;28;982;-72
2022/01/16 02:03:17;;;;;;;;;;;;;;;0.64;100.00;101572.00;5012611;28;1007;-72
2022/01/16 02:05:45;;;;;;;;;;;;;;;0.62;100.00;101579.19;5012690;28;970;-70
2022/01/16 02:08:12;;;;;;;;;;;;;;;0.63;100.00;101592.50;5029760;28;1319;-70
2022/01/16 02:10:39;;;;;;;;;;;;;;;0.62;100.00;101577.38;5034136;28;954;-73
2022/01/16 02:13:11;;;;;;;;;;;;;;;0.63;100.00;101581.81;5019014;28;896;-70
2022/01/16 02:27:58;;;;;;;;;;;;;;;0.63;100.00;101567.59;5030526;28;1918;-72
2022/01/16 02:30:31;;;;;;;;;;;;;;;0.63;100.00;101560.44;5012126;28;1274;-73
2022/01/16 02:33:10;;;;;;;;;;;;;;;0.60;100.00;101568.53;5012378;28;1197;-73
2022/01/16 02:35:37;;;;;;;;;;;;;;;0.62;100.00;101568.50;5030168;28;1973;-73
2022/01/16 02:38:04;;;;;;;;;;;;;;;0.61;100.00;101561.38;5029611;28;1413;-72
2022/01/16 02:40:33;;;;;;;;;;;;;;;0.62;100.00;101565.81;5012517;28;935;-73
2022/01/16 02:42:59;;;;;;;;;;;;;;;0.64;100.00;101567.53;5029885;28;1119;-73
2022/01/16 02:45:30;;;;;;;;;;;;;;;0.64;100.00;101572.88;5030116;28;1273;-72
2022/01/16 02:47:57;;;;;;;;;;;;;;;0.68;100.00;101554.94;5029366;28;1416;-73
2022/01/16 02:50:24;;;;;;;;;;;;;;;0.65;100.00;101563.06;5030002;28;883;-73
2022/01/16 02:52:51;;;;;;;;;;;;;;;0.62;100.00;101568.50;5032641;28;709;-72
2022/01/16 02:55:20;;;;;;;;;;;;;;;0.59;100.00;101557.88;5033239;28;1886;-73
2022/01/16 02:57:47;;;;;;;;;;;;;;;0.56;100.00;101539.25;5033077;28;1332;-74
2022/01/16 03:00:14;;;;;;;;;;;;;;;0.54;100.00;101520.59;5032884;28;773;-71
2022/01/16 03:02:40;;;;;;;;;;;;;;;0.52;100.00;101527.75;5033291;28;950;-72
2022/01/16 03:05:07;;;;;;;;;;;;;;;0.51;100.00;101526.03;5015446;28;1010;-73
2022/01/16 03:07:33;;;;;;;;;;;;;;;0.50;100.00;101522.47;5015781;28;1357;-72
2022/01/16 03:10:07;;;;;;;;;;;;;;;0.49;100.00;101515.38;5033678;28;925;-73
2022/01/16 03:12:34;;;;;;;;;;;;;;;0.47;100.00;101509.19;5014944;28;1529;-73
2022/01/16 03:15:01;;;;;;;;;;;;;;;0.45;100.00;101491.44;5032899;28;942;-73
2022/01/16 03:17:38;;;;;;;;;;;;;;;0.43;100.00;101482.63;5032963;28;1959;-73
2022/01/16 03:22:49;;;;;;;;;;;;;;;0.42;100.00;101476.38;5032781;28;998;-72
2022/01/16 03:25:16;;;;;;;;;;;;;;;0.42;100.00;101468.38;5014824;28;1157;-72
2022/01/16 03:27:43;;;;;;;;;;;;;;;0.43;100.00;101451.44;5014482;28;1320;-73
2022/01/16 03:30:12;;;;;;;;;;;;;;;0.41;100.00;101445.22;5032724;28;903;-72
2022/01/16 03:32:38;;;;;;;;;;;;;;;0.42;100.00;101446.13;4998571;28;1311;-72
2022/01/16 03:35:05;;;;;;;;;;;;;;;0.44;100.00;101447.84;5014683;28;1200;-73
2022/01/16 03:37:31;;;;;;;;;;;;;;;0.43;100.00;101440.75;5032011;28;1914;-72
2022/01/16 03:39:57;;;;;;;;;;;;;;;0.42;100.00;101441.66;5032376;28;990;-72
2022/01/16 03:42:28;;;;;;;;;;;;;;;0.41;100.00;101433.69;5014729;28;813;-74
2022/01/16 03:44:54;;;;;;;;;;;;;;;0.42;100.00;101425.63;5014752;28;847;-73
2022/01/16 03:47:22;;;;;;;;;;;;;;;0.44;100.00;101423.81;5014128;28;1415;-73
2022/01/16 03:49:48;;;;;;;;;;;;;;;0.43;100.00;101424.72;5014594;28;676;-73
2022/01/16 03:52:14;;;;;;;;;;;;;;;0.42;100.00;101427.44;5032004;28;832;-73
2022/01/16 03:54:41;;;;;;;;;;;;;;;0.41;100.00;101420.31;5014282;28;917;-74
2022/01/16 03:57:07;;;;;;;;;;;;;;;0.37;100.00;101419.53;5031743;28;1987;-73
2022/01/16 03:59:33;;;;;;;;;;;;;;;0.32;100.00;101405.41;5032203;28;839;-73
2022/01/16 04:02:00;;;;;;;;;;;;;;;0.25;100.00;101404.72;5031980;28;1052;-73
2022/01/16 04:04:28;;;;;;;;;;;;;;;0.15;100.00;101388.06;5031989;28;1054;-72
2022/01/16 04:06:54;;;;;;;;;;;;;;;0.02;100.00;101375.97;5013926;28;1263;-74
2022/01/16 04:09:20;;;;;;;;;;;;;;;-0.03;100.00;101383.22;5014113;28;1054;-74
2022/01/16 04:11:52;;;;;;;;;;;;;;;-0.10;100.00;101381.66;5031810;28;824;-73
2022/01/16 04:14:23;;;;;;;;;;;;;;;-0.19;100.00;101378.31;5031800;28;963;-72
2022/01/16 04:16:50;;;;;;;;;;;;;;;-0.26;100.00;101375.84;5031449;28;1967;-72
2022/01/16 04:19:16;;;;;;;;;;;;;;;-0.32;100.00;101368.88;5032024;28;907;-72
2022/01/16 04:21:44;;;;;;;;;;;;;;;-0.39;100.00;101362.81;5031840;28;776;-73
2022/01/16 04:24:10;;;;;;;;;;;;;;;-0.43;100.00;101360.25;5032086;28;800;-73
2022/01/16 04:26:36;;;;;;;;;;;;;;;-0.45;100.00;101364.75;5041585;28;912;-73
2022/01/16 04:29:02;;;;;;;;;;;;;;;-0.50;100.00;101356.84;5032083;28;1317;-72
2022/01/16 04:31:29;;;;;;;;;;;;;;;-0.53;100.00;101359.63;5031446;28;840;-72
2022/01/16 04:33:55;;;;;;;;;;;;;;;-0.56;100.00;101357.91;5013795;28;946;-71
2022/01/16 04:36:21;;;;;;;;;;;;;;;-0.62;100.00;101354.50;5013454;28;1907;-74
2022/01/16 04:38:51;;;;;;;;;;;;;;;-0.62;100.00;101351.84;5031399;28;1378;-73
2022/01/16 04:44:01;;;;;;;;;;;;;;;-0.68;100.00;101345.72;5031263;28;1030;-74
2022/01/16 04:46:28;;;;;;;;;;;;;;;-0.71;100.00;101343.16;5030883;28;800;-71
2022/01/16 04:48:55;;;;;;;;;;;;;;;-0.73;100.00;101341.44;5031225;28;1259;-73
2022/01/16 04:51:22;;;;;;;;;;;;;;;-0.77;100.00;101340.63;5031312;28;859;-72
2022/01/16 04:53:50;;;;;;;;;;;;;;;-0.77;100.00;101340.63;5013505;28;1134;-73
2022/01/16 04:56:16;;;;;;;;;;;;;;;-0.81;100.00;101338.94;5030841;28;1906;-72
2022/01/16 04:58:43;;;;;;;;;;;;;;;-0.85;100.00;101338.13;5031026;28;1306;-72
2022/01/16 05:01:09;;;;;;;;;;;;;;;-0.81;100.00;101335.41;5012996;28;1033;-70
2022/01/16 05:03:36;;;;;;;;;;;;;;;-0.85;100.00;101335.47;5031296;28;946;-72
2022/01/16 05:06:03;;;;;;;;;;;;;;;-0.86;100.00;101323.03;5031737;28;867;-72
2022/01/16 05:08:30;;;;;;;;;;;;;;;-0.89;100.00;101323.13;5034158;28;1394;-71
2022/01/16 05:10:58;;;;;;;;;;;;;;;-0.92;100.00;101311.66;5031011;28;1678;-70
2022/01/16 05:16:34;;;;;;;;;;;;;;;-0.93;100.00;101310.78;5031048;28;1153;-71
2022/01/16 05:19:12;;;;;;;;;;;;;;;-0.98;100.00;101306.50;4997668;28;1504;-71
2022/01/16 05:21:39;;;;;;;;;;;;;;;-1.03;100.00;101304.81;5030327;28;883;-71
2022/01/16 05:24:09;;;;;;;;;;;;;;;-1.05;100.00;101300.44;5012632;28;1003;-71
2022/01/16 05:26:37;;;;;;;;;;;;;;;-1.10;100.00;101294.34;5030338;28;812;-72
2022/01/16 05:29:04;;;;;;;;;;;;;;;-1.08;100.00;101296.03;5030426;28;1282;-72
2022/01/16 05:31:30;;;;;;;;;;;;;;;-1.09;100.00;101299.63;5012718;28;840;-70
2022/01/16 05:33:57;;;;;;;;;;;;;;;-1.11;100.00;101284.56;5030350;28;792;-69
2022/01/16 05:36:23;;;;;;;;;;;;;;;-1.14;100.00;101280.19;5027972;28;2112;-70
2022/01/16 05:38:52;;;;;;;;;;;;;;;-1.17;100.00;101280.28;5030095;28;1388;-71
2022/01/16 05:41:19;;;;;;;;;;;;;;;-1.16;100.00;101274.03;5020793;28;1155;-73
2022/01/16 05:43:47;;;;;;;;;;;;;;;-1.16;100.00;101281.13;5030438;28;1171;-72
2022/01/16 05:46:13;;;;;;;;;;;;;;;-1.19;100.00;101275.00;5028950;28;1472;-71
2022/01/16 05:48:40;;;;;;;;;;;;;;;-1.20;100.00;101265.22;5044246;23;3599;-74
2022/01/16 05:51:06;;;;;;;;;;;;;;;-1.21;100.00;101267.94;5010853;28;1706;-74
2022/01/16 05:53:32;;;;;;;;;;;;;;;-1.22;100.00;101261.72;4993706;28;807;-73
2022/01/16 05:55:59;;;;;;;;;;;;;;;-1.24;100.00;101266.22;5010538;28;1204;-74
2022/01/16 05:58:25;;;;;;;;;;;;;;;-1.27;100.00;101266.31;5010342;28;1918;-73
2022/01/16 06:00:52;;;;;;;;;;;;;;;-1.30;100.00;101263.69;5009345;28;999;-74
2022/01/16 06:03:21;;;;;;;;;;;;;;;-1.31;100.00;101255.75;5009393;28;920;-73
2022/01/16 06:05:47;;;;;;;;;;;;;;;-1.36;100.00;101258.53;5009235;28;1007;-74
2022/01/16 06:08:14;;;;;;;;;;;;;;;-1.37;100.00;101256.75;5010368;28;715;-74
2022/01/16 06:10:41;;;;;;;;;;;;;;;-1.37;100.00;101254.09;5010294;28;1291;-74
2022/01/16 06:13:07;;;;;;;;;;;;;;;-1.40;100.00;101246.19;5010558;28;1144;-74
2022/01/16 06:15:34;;;;;;;;;;;;;;;-1.40;100.00;101235.53;5010034;28;784;-74
2022/01/16 06:18:02;;;;;;;;;;;;;;;-1.44;100.00;101239.16;5009968;28;1927;-73
2022/01/16 06:20:29;;;;;;;;;;;;;;;-1.44;100.00;101239.16;5010294;28;1305;-74
2022/01/16 06:22:55;;;;;;;;;;;;;;;-1.47;100.00;101241.91;5010259;28;1033;-74
2022/01/16 06:25:22;;;;;;;;;;;;;;;-1.51;100.00;101238.41;5009353;28;892;-74
2022/01/16 06:27:48;;;;;;;;;;;;;;;-1.52;100.00;101240.22;5013707;28;1026;-74
2022/01/16 06:30:15;;;;;;;;;;;;;;;-1.53;100.00;101243.78;5013807;28;1373;-73
2022/01/16 06:32:41;;;;;;;;;;;;;;;-1.53;100.00;101242.94;5013796;28;1068;-74
2022/01/16 06:35:10;;;;;;;;;;;;;;;-1.55;100.00;101242.06;5014054;28;1068;-73
2022/01/16 06:37:36;;;;;;;;;;;;;;;-1.58;100.00;101243.00;5013393;28;2042;-75
2022/01/16 06:40:03;;;;;;;;;;;;;;;-1.62;100.00;101238.66;4996173;28;1408;-73
2022/01/16 06:42:30;;;;;;;;;;;;;;;-1.62;100.00;101244.00;5013112;28;1522;-73
2022/01/16 06:44:56;;;;;;;;;;;;;;;-1.63;100.00;101242.25;5013553;28;805;-74
2022/01/16 06:47:22;;;;;;;;;;;;;;;-1.63;100.00;101247.59;4995565;28;1372;-73
2022/01/16 06:49:48;;;;;;;;;;;;;;;-1.63;100.00;101246.69;5013420;28;1362;-73
2022/01/16 06:52:16;;;;;;;;;;;;;;;-1.66;100.00;101238.78;5013901;28;875;-75
2022/01/16 06:54:42;;;;;;;;;;;;;;;-1.69;100.00;101237.94;5013444;28;975;-74
2022/01/16 06:57:09;;;;;;;;;;;;;;;-1.70;100.00;101238.88;5012811;28;1986;-76
2022/01/16 06:59:38;;;;;;;;;;;;;;;-1.71;100.00;101241.53;4995819;28;1566;-76
2022/01/16 07:02:05;;;;;;;;;;;;;;;-1.69;100.00;101245.91;4983434;28;1261;-75
2022/01/16 07:04:31;;;;;;;;;;;;;;;-1.71;100.00;101236.22;4996476;28;1508;-76
2022/01/16 07:06:57;;;;;;;;;;;;;;;-1.73;100.00;101244.22;5012935;28;781;-76
2022/01/16 07:09:25;;;;;;;;;;;;;;;-1.74;100.00;101252.25;5013495;28;1403;-77
2022/01/16 07:11:51;;;;;;;;;;;;;;;-1.75;100.00;101258.47;5013320;28;1499;-76
2022/01/16 07:14:17;;;;;;;;;;;;;;;-1.77;100.00;101245.22;4995802;28;833;-76
2022/01/16 07:16:44;;;;;;;;;;;;;;;-1.75;100.00;101242.50;4996149;28;1985;-76
2022/01/16 07:19:10;;;;;;;;;;;;;;;-1.75;100.00;101245.19;5015036;28;1511;-76
2022/01/16 07:21:36;;;;;;;;;;;;;;;-1.73;100.00;101249.56;5013575;28;733;-76
2022/01/16 07:24:03;;;;;;;;;;;;;;;-1.75;100.00;101254.06;5013055;28;994;-76
2022/01/16 07:26:30;;;;;;;;;;;;;;;-1.74;100.00;101245.16;5012713;28;962;-77
2022/01/16 07:28:57;;;;;;;;;;;;;;;-1.73;100.00;101240.72;5012613;28;1628;-76
2022/01/16 07:31:23;;;;;;;;;;;;;;;-1.70;100.00;101248.63;5012771;28;1535;-76
2022/01/16 07:33:50;;;;;;;;;;;;;;;-1.70;100.00;101241.53;5012829;28;837;-76
2022/01/16 07:36:16;;;;;;;;;;;;;;;-1.67;100.00;101240.59;5012713;28;947;-74
2022/01/16 07:38:42;;;;;;;;;;;;;;;-1.64;100.00;101242.28;5011820;28;1910;-75
2022/01/16 07:41:08;;;;;;;;;;;;;;;-1.63;100.00;101239.59;5012435;28;1554;-75
2022/01/16 07:43:36;;;;;;;;;;;;;;;-1.56;100.00;101245.66;4994826;28;1057;-75
2022/01/16 07:46:04;;;;;;;;;;;;;;;-1.52;100.00;101242.88;5012405;28;995;-76
2022/01/16 07:48:31;;;;;;;;;;;;;;;-1.44;100.00;101241.81;4994402;28;1488;-76
2022/01/16 07:50:57;;;;;;;;;;;;;;;-1.41;100.00;101239.97;5011117;28;932;-74
2022/01/16 07:53:23;;;;;;;;;;;;;;;-1.34;100.00;101243.38;4994495;28;1574;-73
2022/01/16 07:55:49;;;;;;;;;;;;;;;-1.28;100.00;101237.00;4994373;28;1516;-74
2022/01/16 07:58:15;;;;;;;;;;;;;;;-1.25;100.00;101226.31;4994331;28;1910;-74
2022/01/16 08:00:43;;;;;;;;;;;;;;;-1.20;100.00;101243.91;5016054;28;1444;-75
2022/01/16 08:03:09;;;;;;;;;;;;;;;-1.18;100.00;101249.22;5010949;28;1126;-74
2022/01/16 08:05:36;;;;;;;;;;;;;;;-1.14;100.00;101236.69;5011449;28;1574;-75
2022/01/16 08:08:02;;;;;;;;;;;;;;;-1.12;100.00;101233.09;5011967;28;844;-75
2022/01/16 08:10:29;;;;;;;;;;;;;;;-1.08;100.00;101242.75;5012128;28;1423;-75
2022/01/16 08:12:55;;;;;;;;;;;;;;;-1.05;100.00;101236.47;4994476;28;837;-73
2022/01/16 08:15:21;;;;;;;;;;;;;;;-1.01;100.00;101228.34;5012090;28;1059;-74
2022/01/16 08:17:49;;;;;;;;;;;;;;;-0.95;100.00;101234.44;5014604;28;1956;-75
2022/01/16 08:20:15;;;;;;;;;;;;;;;-0.86;100.00;101245.72;5021373;28;1325;-76
2022/01/16 08:22:43;;;;;;;;;;;;;;;-0.85;100.00;101233.31;5011471;28;1555;-76
2022/01/16 08:25:10;;;;;;;;;;;;;;;-0.79;100.00;101229.59;5011975;28;994;-74
2022/01/16 08:27:36;;;;;;;;;;;;;;;-0.76;100.00;101216.19;5011703;28;796;-74
2022/01/16 08:30:03;;;;;;;;;;;;;;;-0.70;100.00;101210.69;5011505;28;1504;-75
2022/01/16 08:32:29;;;;;;;;;;;;;;;-0.58;100.00;101217.50;5011169;28;1666;-74
2022/01/16 08:34:56;;;;;;;;;;;;;;;-0.53;100.00;101212.91;5011607;28;1061;-76
2022/01/16 08:37:23;;;;;;;;;;;;;;;-0.46;100.00;101210.94;5010745;28;1918;-75
2022/01/16 08:39:49;;;;;;;;;;;;;;;-0.41;100.00;101201.03;5011583;28;1634;-75
2022/01/16 08:42:16;;;;;;;;;;;;;;;-0.31;100.00;101202.50;4995199;28;1499;-75
2022/01/16 08:44:42;;;;;;;;;;;;;;;-0.26;100.00;101187.25;4993947;28;1522;-75
2022/01/16 08:47:08;;;;;;;;;;;;;;;-0.10;100.00;101178.81;4993247;28;1512;-75
2022/01/16 08:49:35;;;;;;;;;;;;;;;0.01;100.00;101173.13;4992713;28;1414;-74
2022/01/16 08:52:04;;;;;;;;;;;;;;;0.13;100.00;101179.00;4992721;28;1528;-75
2022/01/16 08:54:30;;;;;;;;;;;;;;;0.25;100.00;101175.03;4993523;28;960;-75
2022/01/16 08:56:56;;;;;;;;;;;;;;;0.36;100.00;101177.41;4993601;28;1149;-75
2022/01/16 08:59:23;;;;;;;;;;;;;;;0.46;100.00;101173.50;5010875;28;1914;-74
2022/01/16 09:01:49;;;;;;;;;;;;;;;0.45;100.00;101171.75;5010442;28;1468;-75
2022/01/16 09:04:15;;;;;;;;;;;;;;;0.54;100.00;101167.06;4993465;28;801;-75
2022/01/16 09:06:41;;;;;;;;;;;;;;;0.63;100.00;101186.31;5010965;28;1579;-73
2022/01/16 09:09:09;;;;;;;;;;;;;;;0.60;100.00;101186.44;5010849;28;1306;-74
2022/01/16 09:11:35;;;;;;;;;;;;;;;0.74;100.00;101177.94;5010574;28;912;-74
2022/01/16 09:14:02;;;;;;;;;;;;;;;0.86;100.00;101175.81;5010726;28;1511;-75
2022/01/16 09:16:28;;;;;;;;;;;;;;;1.00;100.00;101170.84;5009385;28;990;-75
2022/01/16 09:18:54;;;;;;;;;;;;;;;1.13;100.00;101171.31;5010209;28;1915;-76
2022/01/16 09:21:21;;;;;;;;;;;;;;;1.11;100.00;101154.41;4992797;28;1483;-75
2022/01/16 09:23:48;;;;;;;;;;;;;;;1.21;100.00;101155.84;5010529;28;825;-74
2022/01/16 09:26:16;;;;;;;;;;;;;;;1.15;100.00;101156.94;4993140;28;1129;-73
2022/01/16 09:28:43;;;;;;;;;;;;;;;1.19;100.00;101152.38;5010083;28;1310;-73
2022/01/16 09:31:09;;;;;;;;;;;;;;;1.17;100.00;101157.75;5010829;28;1464;-74
2022/01/16 09:33:35;;;;;;;;;;;;;;;1.20;100.00;101153.25;5010481;28;1532;-75
2022/01/16 10:27:39;;;;;;;;;;;;;;;1.03;100.00;101156.50;4999785;28;2170;-71
2022/01/16 10:30:07;;;;;;;;;;;;;;;0.89;100.00;101167.69;4995507;28;1407;-73
2022/01/16 10:32:36;;;;;;;;;;;;;;;0.61;100.00;101171.25;5012769;28;1226;-69
2022/01/16 10:35:10;;;;;;;;;;;;;;;0.50;100.00;101177.81;5013602;28;1303;-72
2022/01/16 10:37:36;;;;;;;;;;;;;;;0.43;100.00;101170.06;4997293;28;1910;-71
2022/01/16 10:40:05;;;;;;;;;;;;;;;0.30;100.00;101162.44;5009726;28;1989;-71
2022/01/16 10:42:32;;;;;;;;;;;;;;;0.31;100.00;101160.66;4999600;28;1016;-70
2022/01/16 10:45:06;;;;;;;;;;;;;;;0.22;100.00;101176.94;5003658;28;1602;-70
2022/01/16 10:47:34;;;;;;;;;;;;;;;0.17;100.00;101171.75;5013708;28;739;-72
2022/01/16 10:50:02;;;;;;;;;;;;;;;0.20;100.00;101178.78;5012777;28;899;-68
2022/01/16 10:52:28;;;;;;;;;;;;;;;0.22;100.00;101192.97;5011414;28;1555;-71
2022/01/16 10:54:54;;;;;;;;;;;;;;;0.22;100.00;101182.28;5013413;28;1436;-70
2022/01/16 10:57:22;;;;;;;;;;;;;;;0.08;100.00;101194.28;5013671;28;986;-68
2022/01/16 10:59:49;;;;;;;;;;;;;;;0.05;100.00;101194.34;5013321;28;1922;-70
2022/01/16 11:02:16;;;;;;;;;;;;;;;-0.01;100.00;101199.88;4995765;28;832;-70
2022/01/16 11:04:43;;;;;;;;;;;;;;;0.02;100.00;101198.91;5013050;28;1401;-69
2022/01/16 11:07:10;;;;;;;;;;;;;;;0.05;100.00;101191.66;5013472;28;899;-70
2022/01/16 11:09:36;;;;;;;;;;;;;;;0.03;100.00;101189.97;4989194;28;1136;-70
2022/01/16 11:12:03;;;;;;;;;;;;;;;0.01;100.00;101181.16;5001539;28;1268;-69
2022/01/16 11:14:30;;;;;;;;;;;;;;;-0.02;100.00;101190.13;5003292;28;1402;-70
2022/01/16 11:16:57;;;;;;;;;;;;;;;-0.05;100.00;101192.88;5002533;28;1241;-70
2022/01/16 11:19:26;;;;;;;;;;;;;;;-0.02;100.00;101190.97;5001900;28;1962;-68
2022/01/16 11:21:55;;;;;;;;;;;;;;;0.01;100.00;101182.00;5003886;28;1225;-70
2022/01/16 11:24:34;;;;;;;;;;;;;;;0.03;100.00;101184.63;5002625;28;1385;-69
2022/01/16 11:27:00;;;;;;;;;;;;;;;0.12;100.00;101179.00;4999568;28;1241;-68
2022/01/16 11:29:28;;;;;;;;;;;;;;;0.06;100.00;101180.09;5002254;28;1316;-70
2022/01/16 11:31:55;;;;;;;;;;;;;;;0.13;100.00;101184.34;5001864;28;1243;-70
2022/01/16 11:34:22;;;;;;;;;;;;;;;0.09;100.00;101171.97;5003168;28;1418;-69
2022/01/16 11:36:50;;;;;;;;;;;;;;;0.07;100.00;101178.31;5002368;28;1330;-70
2022/01/16 11:39:16;;;;;;;;;;;;;;;0.11;100.00;101178.16;5001229;28;1918;-68
2022/01/16 11:41:50;;;;;;;;;;;;;;;0.13;100.00;101181.66;4993067;28;1009;-70
2022/01/16 11:44:22;;;;;;;;;;;;;;;0.16;100.00;101180.66;4993003;28;904;-72
2022/01/16 11:46:51;;;;;;;;;;;;;;;0.09;100.00;101181.78;4993190;28;1035;-69
2022/01/16 11:49:19;;;;;;;;;;;;;;;0.14;100.00;101182.53;4992976;28;943;-68
2022/01/16 11:52:01;;;;;;;;;;;;;;;0.23;100.00;101165.31;4992860;28;999;-70
2022/01/16 11:54:29;;;;;;;;;;;;;;;0.27;100.00;101156.31;4992397;28;1338;-74
2022/01/16 11:56:57;;;;;;;;;;;;;;;0.28;100.00;101158.06;4992371;28;979;-72
2022/01/16 11:59:24;;;;;;;;;;;;;;;0.23;100.00;101150.19;4992600;28;1914;-75
2022/01/16 12:01:52;;;;;;;;;;;;;;;0.30;100.00;101142.88;4992656;28;911;-74
2022/01/16 12:04:53;;;;;;;;;;;;;;;0.40;100.00;101143.44;4992322;28;1045;-71
2022/01/16 12:07:38;;;;;;;;;;;;;;;0.41;100.00;101148.72;4932506;29;908;-71
2022/01/16 12:10:06;;;;;;;;;;;;;;;0.43;100.00;101144.22;4932468;29;1456;-72
2022/01/16 12:12:35;;;;;;;;;;;;;;;0.45;100.00;101147.69;4967006;28;971;-72
2022/01/16 12:15:03;;;;;;;;;;;;;;;0.49;100.00;101149.38;4992188;28;1420;-73
2022/01/16 12:17:30;;;;;;;;;;;;;;;0.48;100.00;101158.31;4992385;28;788;-71
2022/01/16 12:19:56;;;;;;;;;;;;;;;0.47;100.00;101158.34;4975119;28;1919;-73
2022/01/16 12:22:41;;;;;;;;;;;;;;;0.51;100.00;101157.34;4992633;28;883;-75
2022/01/16 12:25:09;;;;;;;;;;;;;;;0.65;100.00;101160.41;5007214;28;1332;-72
2022/01/16 12:27:49;;;;;;;;;;;;;;;0.79;100.00;101153.75;4992057;28;969;-71
2022/01/16 12:30:28;;;;;;;;;;;;;;;0.87;100.00;101153.47;4992207;28;1159;-73
2022/01/16 12:32:56;;;;;;;;;;;;;;;0.89;100.00;101151.63;4974406;28;986;-73
2022/01/16 12:35:55;;;;;;;;;;;;;;;0.83;100.00;101166.09;4991455;28;1327;-73
2022/01/16 12:38:22;;;;;;;;;;;;;;;0.79;100.00;101162.63;4931585;29;1979;-70
2022/01/16 12:40:52;;;;;;;;;;;;;;;0.79;100.00;101151.94;4915672;29;1333;-69
2022/01/16 12:43:27;;;;;;;;;;;;;;;0.77;100.00;101145.75;4958910;28;963;-71
2022/01/16 12:45:54;;;;;;;;;;;;;;;0.73;100.00;101146.78;4991741;28;1432;-73
2022/01/16 12:48:21;;;;;;;;;;;;;;;0.79;100.00;101143.94;4991792;28;986;-70
2022/01/16 12:50:47;;;;;;;;;;;;;;;0.81;100.00;101136.72;4991576;28;947;-71
2022/01/16 12:53:14;;;;;;;;;;;;;;;0.81;100.00;101144.72;4991526;28;962;-73
2022/01/16 12:55:40;;;;;;;;;;;;;;;0.82;100.00;101132.25;4991203;28;1329;-73
2022/01/16 12:58:17;;;;;;;;;;;;;;;0.91;100.00;101131.06;4974159;28;942;-72
2022/01/16 13:00:57;;;;;;;;;;;;;;;0.90;100.00;101137.34;5007248;28;1559;-71
2022/01/16 13:03:24;;;;;;;;;;;;;;;0.99;100.00;101131.69;4993328;28;851;-73
2022/01/16 13:05:50;;;;;;;;;;;;;;;1.01;100.00;101135.16;5010869;28;1314;-72
2022/01/16 13:08:17;;;;;;;;;;;;;;;1.00;100.00;101130.72;4993474;28;888;-73
2022/01/16 13:10:43;;;;;;;;;;;;;;;0.95;100.00;101138.03;5010706;28;975;-74
2022/01/16 13:13:10;;;;;;;;;;;;;;;0.96;100.00;101135.34;4993532;28;1058;-73
2022/01/16 13:15:38;;;;;;;;;;;;;;;0.97;100.00;101130.84;4993301;28;1345;-71
2022/01/16 13:18:09;;;;;;;;;;;;;;;0.95;100.00;101122.00;5010947;28;998;-71
2022/01/16 13:20:35;;;;;;;;;;;;;;;0.97;100.00;101126.38;5010777;28;1919;-71
2022/01/16 13:23:02;;;;;;;;;;;;;;;0.97;100.00;101129.03;5010965;28;804;-71
2022/01/16 13:25:29;;;;;;;;;;;;;;;1.01;100.00;101129.81;4993300;28;1332;-71
2022/01/16 13:27:56;;;;;;;;;;;;;;;1.03;100.00;101136.00;4993414;28;1045;-71
2022/01/16 13:30:26;;;;;;;;;;;;;;;1.08;100.00;101131.38;5011119;28;768;-71
2022/01/16 13:33:02;;;;;;;;;;;;;;;1.07;100.00;101132.28;5010897;28;804;-72
2022/01/16 13:35:29;;;;;;;;;;;;;;;1.11;100.00;101130.34;5010564;28;1289;-72
2022/01/16 13:38:03;;;;;;;;;;;;;;;1.14;100.00;101141.81;5010713;28;796;-73
2022/01/16 13:40:30;;;;;;;;;;;;;;;1.15;100.00;101143.59;5010978;28;1971;-70
2022/01/16 13:43:03;;;;;;;;;;;;;;;1.12;100.00;101141.03;5011146;28;1057;-72
2022/01/16 13:45:32;;;;;;;;;;;;;;;1.23;100.00;101145.09;5007208;28;1436;-72
2022/01/16 13:48:01;;;;;;;;;;;;;;;1.26;100.00;101137.00;5010365;28;1009;-72
2022/01/16 13:50:30;;;;;;;;;;;;;;;1.28;100.00;101138.69;4995853;28;1523;-73
2022/01/16 13:52:57;;;;;;;;;;;;;;;1.34;100.00;101146.47;4991326;28;1585;-75
2022/01/16 13:55:24;;;;;;;;;;;;;;;1.35;100.00;101158.06;5000865;28;1533;-73
2022/01/16 13:57:51;;;;;;;;;;;;;;;1.38;100.00;101147.25;5005423;28;1511;-75
2022/01/16 14:00:19;;;;;;;;;;;;;;;1.44;100.00;101144.34;5010703;28;1974;-73
2022/01/16 14:02:46;;;;;;;;;;;;;;;1.48;100.00;101143.31;5010742;28;820;-74
2022/01/16 14:05:23;;;;;;;;;;;;;;;1.45;100.00;101138.03;5010131;28;1425;-75
2022/01/16 14:07:50;;;;;;;;;;;;;;;1.47;100.00;101141.56;5010548;28;990;-73
2022/01/16 14:10:31;;;;;;;;;;;;;;;1.50;100.00;101132.53;4993176;28;920;-71
2022/01/16 14:12:57;;;;;;;;;;;;;;;1.54;100.00;101136.84;5010117;28;1322;-74